createdAt,value
2018-11-06T00:00:23.131Z,43.37
2018-11-06T00:02:57.981Z,39.93
2018-11-06T00:05:27.898Z,39.78
2018-11-06T00:07:57.471Z,41.53
2018-11-06T00:10:26.862Z,42.27
2018-11-06T00:12:56.393Z,41.83
2018-11-06T00:15:25.807Z,42.13
2018-11-06T00:17:55.211Z,43.97
2018-11-06T00:20:24.738Z,43.70
2018-11-06T00:22:54.270Z,41.07
2018-11-06T00:25:23.739Z,40.57
2018-11-06T00:27:53.757Z,40.30
2018-11-06T00:30:29.643Z,41.17
2018-11-06T00:32:59.461Z,38.83
2018-11-06T00:35:29.989Z,41.20
2018-11-06T00:37:59.378Z,38.60
2018-11-06T00:40:29.775Z,39.70
2018-11-06T00:42:59.206Z,40.53
2018-11-06T00:45:28.664Z,38.30
2018-11-06T00:47:58.387Z,37.57
2018-11-06T00:50:27.726Z,38.77
2018-11-06T00:52:57.175Z,37.83
2018-11-06T00:55:26.758Z,37.80
2018-11-06T00:57:56.064Z,38.40
2018-11-06T01:00:26.306Z,37.43
2018-11-06T01:02:56.041Z,36.88
2018-11-06T01:05:25.591Z,37.93
2018-11-06T01:07:54.973Z,36.83
2018-11-06T01:10:24.325Z,37.83
2018-11-06T01:12:53.713Z,38.23
2018-11-06T01:15:23.109Z,37.83
2018-11-06T01:17:52.498Z,37.83
2018-11-06T01:20:22.490Z,37.47
2018-11-06T01:22:52.370Z,36.23
2018-11-06T01:25:21.900Z,36.60
2018-11-06T01:27:51.420Z,37.60
2018-11-06T01:30:21.136Z,36.97
2018-11-06T01:32:50.486Z,36.67
2018-11-06T01:35:19.884Z,36.20
2018-11-06T01:37:49.239Z,36.73
2018-11-06T01:40:19.294Z,37.77
2018-11-06T01:42:49.217Z,40.20
2018-11-06T01:45:19.465Z,37.80
2018-11-06T01:47:48.858Z,37.33
2018-11-06T01:50:18.551Z,39.50
2018-11-06T01:52:48.438Z,39.40
2018-11-06T01:55:17.764Z,40.63
2018-11-06T01:57:47.272Z,42.20
2018-11-06T02:00:18.113Z,41.90
2018-11-06T02:02:48.238Z,40.95
2018-11-06T02:05:18.658Z,40.23
2018-11-06T02:07:49.183Z,43.03
2018-11-06T02:10:18.950Z,40.60
2018-11-06T02:12:48.662Z,43.53
2018-11-06T02:15:18.104Z,41.67
2018-11-06T02:17:47.508Z,43.00
2018-11-06T02:20:17.395Z,41.50
2018-11-06T02:22:47.645Z,42.83
2018-11-06T02:25:17.161Z,42.70
2018-11-06T02:27:48.481Z,43.20
2018-11-06T02:30:18.296Z,42.03
2018-11-06T02:32:48.111Z,43.27
2018-11-06T02:35:17.520Z,44.67
2018-11-06T02:37:46.830Z,45.67
2018-11-06T02:40:16.670Z,45.80
2018-11-06T02:42:46.023Z,44.33
2018-11-06T02:45:15.951Z,45.87
2018-11-06T02:47:45.447Z,47.20
2018-11-06T02:50:15.153Z,46.23
2018-11-06T02:52:45.110Z,45.60
2018-11-06T02:55:14.600Z,45.67
2018-11-06T02:57:44.200Z,47.05
2018-11-06T03:00:16.109Z,49.07
2018-11-06T03:02:46.458Z,48.87
2018-11-06T03:05:15.853Z,50.20
2018-11-06T03:07:45.526Z,50.17
2018-11-06T03:10:15.321Z,47.93
2018-11-06T03:12:45.286Z,49.03
2018-11-06T03:15:15.503Z,47.97
2018-11-06T03:17:45.103Z,46.23
2018-11-06T03:20:15.073Z,47.13
2018-11-06T03:22:45.102Z,47.65
2018-11-06T03:25:14.650Z,49.73
2018-11-06T03:27:44.008Z,47.23
2018-11-06T03:30:15.484Z,48.03
2018-11-06T03:32:45.203Z,45.63
2018-11-06T03:35:15.533Z,46.60
2018-11-06T03:37:45.135Z,42.00
2018-11-06T03:40:14.642Z,45.73
2018-11-06T03:42:44.490Z,46.28
2018-11-06T03:45:14.328Z,47.13
2018-11-06T03:47:43.742Z,47.47
2018-11-06T03:50:13.631Z,46.80
2018-11-06T03:52:43.190Z,47.13
2018-11-06T03:55:12.794Z,48.00
2018-11-06T03:57:42.167Z,47.40
2018-11-06T04:00:15.646Z,51.40
2018-11-06T04:02:45.255Z,50.05
2018-11-06T04:05:14.767Z,49.87
2018-11-06T04:07:44.166Z,51.87
2018-11-06T04:10:13.963Z,50.53
2018-11-06T04:12:43.567Z,50.28
2018-11-06T04:15:14.026Z,51.27
2018-11-06T04:17:44.509Z,51.63
2018-11-06T04:20:14.056Z,52.27
2018-11-06T04:22:43.608Z,50.45
2018-11-06T04:25:13.112Z,51.57
2018-11-06T04:27:42.490Z,52.10
2018-11-06T04:30:13.478Z,49.17
2018-11-06T04:32:43.835Z,55.13
2018-11-06T04:35:13.623Z,54.47
2018-11-06T04:37:43.207Z,54.67
2018-11-06T04:40:13.873Z,56.02
2018-11-06T04:42:43.602Z,55.80
2018-11-06T04:45:13.561Z,56.93
2018-11-06T04:47:43.225Z,58.43
2018-11-06T04:50:13.177Z,56.47
2018-11-06T04:52:42.775Z,58.73
2018-11-06T04:55:12.967Z,57.20
2018-11-06T04:57:44.682Z,58.23
2018-11-06T05:00:16.630Z,58.40
2018-11-06T05:02:46.274Z,58.27
2018-11-06T05:05:15.655Z,57.83
2018-11-06T05:07:45.091Z,55.13
2018-11-06T05:10:15.214Z,57.67
2018-11-06T05:12:44.792Z,54.75
2018-11-06T05:15:15.451Z,57.23
2018-11-06T05:17:44.958Z,51.33
2018-11-06T05:20:16.793Z,52.93
2018-11-06T05:22:47.002Z,50.33
2018-11-06T05:25:16.649Z,46.60
2018-11-06T05:27:46.227Z,49.70
2018-11-06T05:30:15.624Z,51.13
2018-11-06T05:32:45.302Z,48.90
2018-11-06T05:35:14.755Z,51.27
2018-11-06T05:37:44.224Z,53.20
2018-11-06T05:40:24.946Z,51.47
2018-11-06T05:42:54.491Z,50.87
2018-11-06T05:45:24.087Z,50.87
2018-11-06T05:47:53.398Z,51.10
2018-11-06T05:50:22.883Z,52.00
2018-11-06T05:52:52.286Z,51.90
2018-11-06T05:55:21.675Z,50.40
2018-11-06T05:57:50.999Z,51.87
2018-11-06T06:00:20.463Z,51.53
2018-11-06T06:02:50.237Z,53.77
2018-11-06T06:05:19.659Z,53.17
2018-11-06T06:07:49.024Z,55.90
2018-11-06T06:10:18.378Z,54.43
2018-11-06T06:12:47.854Z,56.43
2018-11-06T06:15:17.427Z,54.63
2018-11-06T06:17:47.010Z,55.78
2018-11-06T06:20:16.455Z,55.90
2018-11-06T06:22:45.936Z,55.88
2018-11-06T06:25:15.492Z,55.07
2018-11-06T06:27:44.959Z,57.20
2018-11-06T06:30:15.316Z,52.57
2018-11-06T06:32:44.783Z,53.95
2018-11-06T06:35:14.316Z,53.43
2018-11-06T06:37:44.099Z,54.13
2018-11-06T06:40:15.860Z,53.47
2018-11-06T06:42:48.091Z,54.60
2018-11-06T06:45:18.736Z,53.00
2018-11-06T06:47:48.307Z,56.07
2018-11-06T06:50:18.876Z,55.60
2018-11-06T06:52:48.796Z,55.83
2018-11-06T06:55:18.681Z,55.77
2018-11-06T06:57:48.797Z,58.10
2018-11-06T07:00:21.924Z,57.63
2018-11-06T07:02:51.498Z,57.87
2018-11-06T07:05:22.194Z,58.63
2018-11-06T07:07:51.651Z,57.83
2018-11-06T07:10:22.235Z,58.80
2018-11-06T07:12:52.104Z,55.90
2018-11-06T07:15:22.664Z,58.27
2018-11-06T07:17:52.649Z,56.87
2018-11-06T07:20:25.667Z,58.40
2018-11-06T07:22:55.333Z,56.93
2018-11-06T07:25:24.820Z,57.70
2018-11-06T07:27:54.360Z,57.07
2018-11-06T07:30:24.053Z,57.23
2018-11-06T07:32:53.605Z,55.37
2018-11-06T07:35:23.002Z,56.33
2018-11-06T07:37:52.404Z,54.10
2018-11-06T07:40:21.935Z,53.90
2018-11-06T07:42:51.435Z,56.23
2018-11-06T07:45:21.963Z,55.83
2018-11-06T07:47:51.427Z,53.67
2018-11-06T07:50:20.940Z,55.43
2018-11-06T07:52:50.347Z,58.50
2018-11-06T07:55:19.872Z,56.97
2018-11-06T07:57:49.289Z,57.00
2018-11-06T08:00:21.512Z,60.17
2018-11-06T08:02:51.355Z,57.23
2018-11-06T08:05:21.088Z,56.73
2018-11-06T08:07:51.319Z,56.20
2018-11-06T08:10:20.994Z,58.53
2018-11-06T08:12:52.709Z,57.93
2018-11-06T08:15:22.328Z,57.20
2018-11-06T08:17:51.946Z,55.73
2018-11-06T08:20:21.478Z,55.57
2018-11-06T08:22:50.819Z,56.60
2018-11-06T08:25:20.239Z,54.60
2018-11-06T08:27:49.616Z,53.57
2018-11-06T08:30:19.136Z,55.03
2018-11-06T08:32:48.766Z,54.27
2018-11-06T08:35:18.727Z,52.87
2018-11-06T08:37:48.251Z,54.35
2018-11-06T08:40:18.256Z,55.53
2018-11-06T08:42:47.749Z,52.65
2018-11-06T08:45:17.593Z,53.63
2018-11-06T08:47:48.696Z,52.00
2018-11-06T08:50:19.082Z,52.48
2018-11-06T08:52:48.815Z,50.33
2018-11-06T08:55:18.192Z,50.67
2018-11-06T08:57:47.542Z,51.05
2018-11-06T09:00:18.876Z,52.73
2018-11-06T09:02:49.120Z,51.08
2018-11-06T09:05:19.021Z,52.17
2018-11-06T09:07:48.451Z,49.18
2018-11-06T09:10:18.220Z,51.23
2018-11-06T09:12:47.655Z,48.87
2018-11-06T09:15:17.662Z,49.60
2018-11-06T09:17:47.002Z,49.93
2018-11-06T09:20:17.209Z,48.47
2018-11-06T09:22:47.063Z,48.23
2018-11-06T09:25:17.840Z,50.47
2018-11-06T09:27:48.064Z,51.10
2018-11-06T09:30:19.015Z,52.40
2018-11-06T09:32:48.518Z,51.57
2018-11-06T09:35:18.108Z,50.40
2018-11-06T09:37:47.696Z,52.60
2018-11-06T09:40:18.482Z,52.43
2018-11-06T09:42:47.920Z,49.13
2018-11-06T09:45:17.502Z,50.10
2018-11-06T09:47:47.024Z,49.38
2018-11-06T09:50:18.088Z,48.13
2018-11-06T09:52:48.400Z,47.17
2018-11-06T09:55:18.443Z,48.30
2018-11-06T09:57:48.218Z,47.93
2018-11-06T10:00:18.905Z,47.33
2018-11-06T10:02:48.469Z,47.33
2018-11-06T10:05:18.070Z,46.23
2018-11-06T10:07:47.667Z,47.25
2018-11-06T10:10:17.981Z,47.10
2018-11-06T10:12:48.144Z,46.00
2018-11-06T10:15:19.907Z,46.33
2018-11-06T10:17:50.108Z,44.67
2018-11-06T10:20:20.519Z,44.97
2018-11-06T10:22:50.304Z,45.30
2018-11-06T10:25:19.847Z,46.47
2018-11-06T10:27:49.310Z,44.65
2018-11-06T10:30:20.039Z,43.40
2018-11-06T10:32:49.413Z,44.73
2018-11-06T10:35:18.971Z,43.03
2018-11-06T10:37:48.459Z,44.63
2018-11-06T10:40:19.435Z,41.50
2018-11-06T10:42:49.150Z,41.87
2018-11-06T10:45:19.886Z,44.10
2018-11-06T10:47:49.552Z,43.40
2018-11-06T10:50:19.376Z,41.77
2018-11-06T10:52:49.313Z,41.27
2018-11-06T10:55:18.986Z,43.13
2018-11-06T10:57:48.542Z,40.00
2018-11-06T11:00:23.328Z,40.77
2018-11-06T11:02:58.163Z,41.27
2018-11-06T11:05:29.082Z,41.63
2018-11-06T11:07:58.876Z,40.77
2018-11-06T11:10:28.263Z,40.27
2018-11-06T11:12:57.760Z,42.27
2018-11-06T11:15:27.342Z,39.07
2018-11-06T11:17:56.711Z,42.10
2018-11-06T11:20:26.341Z,39.13
2018-11-06T11:22:55.931Z,40.60
2018-11-06T11:25:25.544Z,39.37
2018-11-06T11:27:54.903Z,40.67
2018-11-06T11:30:24.277Z,39.40
2018-11-06T11:32:53.714Z,39.80
2018-11-06T11:35:23.110Z,40.90
2018-11-06T11:37:52.672Z,39.05
2018-11-06T11:40:22.079Z,38.87
2018-11-06T11:42:51.556Z,39.23
2018-11-06T11:45:20.935Z,38.43
2018-11-06T11:47:50.515Z,37.90
2018-11-06T11:50:19.935Z,38.67
2018-11-06T11:52:49.530Z,38.73
2018-11-06T11:55:18.946Z,39.30
2018-11-06T11:57:48.380Z,38.47
2018-11-06T12:00:19.609Z,38.93
2018-11-06T12:02:49.277Z,36.73
2018-11-06T12:05:18.852Z,39.13
2018-11-06T12:07:48.463Z,38.05
2018-11-06T12:10:17.979Z,37.23
2018-11-06T12:12:47.448Z,35.40
2018-11-06T12:15:17.722Z,37.93
2018-11-06T12:17:48.004Z,35.15
2018-11-06T12:20:17.777Z,36.17
2018-11-06T12:22:47.184Z,36.40
2018-11-06T12:25:17.012Z,35.90
2018-11-06T12:27:46.425Z,35.87
2018-11-06T12:30:16.890Z,37.17
2018-11-06T12:32:46.284Z,37.45
2018-11-06T12:35:16.072Z,36.37
2018-11-06T12:37:45.645Z,35.67
2018-11-06T12:40:15.506Z,34.23
2018-11-06T12:42:44.924Z,35.77
2018-11-06T12:45:15.758Z,36.73
2018-11-06T12:47:45.838Z,35.03
2018-11-06T12:50:15.494Z,36.77
2018-11-06T12:52:44.996Z,35.60
2018-11-06T12:55:15.535Z,35.90
2018-11-06T12:57:44.995Z,35.78
2018-11-06T13:00:18.011Z,34.33
2018-11-06T13:02:47.452Z,35.13
2018-11-06T13:05:17.073Z,35.13
2018-11-06T13:07:46.771Z,36.47
2018-11-06T13:10:16.545Z,35.70
2018-11-06T13:12:45.966Z,34.33
2018-11-06T13:15:15.715Z,35.07
2018-11-06T13:17:46.263Z,33.53
2018-11-06T13:20:16.741Z,34.87
2018-11-06T13:22:46.175Z,35.30
2018-11-06T13:25:15.562Z,36.57
2018-11-06T13:27:44.970Z,35.93
2018-11-06T13:30:21.135Z,36.33
2018-11-06T13:32:50.755Z,35.00
2018-11-06T13:35:20.200Z,34.53
2018-11-06T13:37:49.580Z,32.15
2018-11-06T13:40:19.096Z,32.27
2018-11-06T13:42:48.866Z,32.70
2018-11-06T13:45:19.845Z,32.97
2018-11-06T13:47:49.344Z,31.63
2018-11-06T13:50:18.886Z,31.37
2018-11-06T13:52:48.307Z,30.53
2018-11-06T13:55:18.096Z,29.73
2018-11-06T13:57:47.896Z,30.82
2018-11-06T14:00:21.249Z,30.87
2018-11-06T14:02:50.743Z,30.13
2018-11-06T14:05:20.334Z,31.03
2018-11-06T14:07:49.804Z,30.43
2018-11-06T14:10:19.371Z,31.03
2018-11-06T14:12:48.738Z,30.25
2018-11-06T14:15:18.289Z,29.67
2018-11-06T14:17:47.630Z,30.70
2018-11-06T14:20:17.327Z,30.43
2018-11-06T14:22:46.896Z,30.57
2018-11-06T14:25:16.269Z,31.27
2018-11-06T14:27:45.736Z,30.80
2018-11-06T14:30:17.283Z,32.03
2018-11-06T14:32:47.273Z,32.20
2018-11-06T14:35:17.907Z,31.20
2018-11-06T14:37:48.149Z,32.13
2018-11-06T14:40:17.954Z,33.00
2018-11-06T14:42:47.680Z,33.35
2018-11-06T14:45:18.518Z,32.60
2018-11-06T14:47:48.049Z,31.80
2018-11-06T14:50:17.458Z,31.43
2018-11-06T14:52:47.096Z,31.45
2018-11-06T14:55:17.070Z,33.60
2018-11-06T14:57:46.617Z,33.45
2018-11-06T15:00:20.983Z,33.57
2018-11-06T15:02:51.803Z,33.43
2018-11-06T15:05:21.996Z,33.67
2018-11-06T15:07:51.411Z,33.13
2018-11-06T15:10:21.483Z,33.03
2018-11-06T15:12:51.091Z,31.57
2018-11-06T15:15:20.600Z,32.43
2018-11-06T15:17:49.952Z,35.23
2018-11-06T15:20:22.153Z,35.30
2018-11-06T15:22:51.556Z,34.17
2018-11-06T15:25:20.923Z,34.63
2018-11-06T15:27:50.480Z,34.87
2018-11-06T15:30:20.507Z,32.57
2018-11-06T15:32:50.062Z,35.17
2018-11-06T15:35:20.872Z,35.27
2018-11-06T15:37:50.256Z,35.37
2018-11-06T15:40:20.565Z,35.03
2018-11-06T15:42:50.437Z,34.20
2018-11-06T15:45:20.447Z,36.60
2018-11-06T15:47:50.279Z,36.17
2018-11-06T15:50:20.711Z,36.73
2018-11-06T15:52:51.026Z,35.73
2018-11-06T15:55:20.508Z,38.60
2018-11-06T15:57:49.925Z,37.00
2018-11-06T16:00:21.303Z,36.20
2018-11-06T16:02:50.999Z,36.13
2018-11-06T16:05:20.446Z,35.93
2018-11-06T16:07:50.413Z,35.93
2018-11-06T16:10:21.255Z,38.07
2018-11-06T16:12:50.824Z,39.33
2018-11-06T16:15:20.348Z,37.33
2018-11-06T16:17:49.769Z,36.07
2018-11-06T16:20:20.440Z,37.93
2018-11-06T16:22:49.877Z,37.00
2018-11-06T16:25:19.974Z,38.67
2018-11-06T16:27:49.491Z,34.35
2018-11-06T16:30:20.938Z,47.13
2018-11-06T16:32:50.615Z,33.10
2018-11-06T16:35:21.695Z,29.37
2018-11-06T16:37:51.629Z,28.60
2018-11-06T16:40:22.614Z,28.87
2018-11-06T16:42:52.103Z,30.80
2018-11-06T16:45:23.077Z,27.43
2018-11-06T16:47:53.003Z,31.73
2018-11-06T16:50:22.724Z,26.17
2018-11-06T16:52:52.112Z,36.60
2018-11-06T16:55:22.197Z,30.27
2018-11-06T16:57:51.691Z,37.50
2018-11-06T17:00:25.563Z,39.87
2018-11-06T17:02:54.979Z,41.27
2018-11-06T17:05:24.575Z,44.93
2018-11-06T17:07:54.069Z,42.57
2018-11-06T17:10:23.793Z,42.97
2018-11-06T17:12:53.240Z,43.27
2018-11-06T17:15:23.719Z,48.43
2018-11-06T17:17:53.931Z,48.37
2018-11-06T17:20:25.818Z,49.23
2018-11-06T17:22:55.260Z,47.73
2018-11-06T17:25:25.104Z,48.10
2018-11-06T17:27:54.539Z,48.93
2018-11-06T17:30:25.532Z,48.83
2018-11-06T17:32:55.203Z,50.30
2018-11-06T17:35:24.705Z,49.07
2018-11-06T17:37:54.327Z,45.87
2018-11-06T17:40:23.736Z,48.63
2018-11-06T17:42:53.195Z,48.43
2018-11-06T17:45:23.959Z,46.83
2018-11-06T17:47:53.634Z,47.50
2018-11-06T17:50:23.173Z,45.67
2018-11-06T17:52:52.561Z,46.23
2018-11-06T17:55:22.120Z,48.50
2018-11-06T17:57:51.288Z,46.58
2018-11-06T18:00:22.131Z,46.57
2018-11-06T18:02:51.531Z,47.77
2018-11-06T18:05:22.775Z,47.33
2018-11-06T18:07:52.140Z,47.60
2018-11-06T18:10:21.988Z,47.27
2018-11-06T18:12:51.418Z,47.00
2018-11-06T18:15:21.052Z,49.23
2018-11-06T18:17:50.702Z,49.13
2018-11-06T18:20:20.038Z,47.70
2018-11-06T18:22:49.531Z,46.00
2018-11-06T18:25:19.045Z,47.33
2018-11-06T18:27:48.435Z,48.33
2018-11-06T18:30:19.047Z,44.90
2018-11-06T18:32:48.590Z,44.27
2018-11-06T18:35:18.921Z,46.87
2018-11-06T18:37:48.400Z,46.17
2018-11-06T18:40:19.041Z,45.50
2018-11-06T18:42:49.451Z,41.90
2018-11-06T18:45:18.958Z,44.87
2018-11-06T18:47:48.617Z,43.75
2018-11-06T18:50:19.005Z,44.80
2018-11-06T18:52:49.882Z,45.08
2018-11-06T18:55:19.521Z,41.97
2018-11-06T18:57:49.011Z,42.73
2018-11-06T19:00:19.766Z,41.77
2018-11-06T19:02:50.454Z,43.10
2018-11-06T19:05:20.808Z,41.00
2018-11-06T19:07:50.743Z,43.68
2018-11-06T19:10:20.379Z,43.23
2018-11-06T19:12:49.805Z,41.45
2018-11-06T19:15:20.509Z,39.07
2018-11-06T19:17:50.417Z,42.70
2018-11-06T19:20:21.528Z,42.40
2018-11-06T19:22:50.915Z,42.03
2018-11-06T19:25:20.531Z,39.60
2018-11-06T19:27:50.032Z,39.53
2018-11-06T19:30:20.208Z,41.90
2018-11-06T19:32:49.666Z,40.47
2018-11-06T19:35:19.230Z,42.20
2018-11-06T19:37:49.013Z,38.40
2018-11-06T19:40:18.853Z,40.50
2018-11-06T19:42:48.877Z,39.93
2018-11-06T19:45:18.497Z,39.57
2018-11-06T19:47:48.601Z,37.80
2018-11-06T19:50:19.221Z,41.68
2018-11-06T19:52:49.309Z,39.20
2018-11-06T19:55:19.255Z,41.03
2018-11-06T19:57:49.081Z,41.00
2018-11-06T20:00:21.890Z,40.17
2018-11-06T20:02:52.540Z,38.37
2018-11-06T20:05:22.522Z,38.10
2018-11-06T20:07:53.210Z,38.97
2018-11-06T20:10:24.748Z,38.90
2018-11-06T20:12:55.071Z,40.23
2018-11-06T20:15:24.764Z,38.50
2018-11-06T20:17:54.399Z,39.10
2018-11-06T20:20:25.402Z,36.83
2018-11-06T20:22:55.339Z,36.90
2018-11-06T20:25:25.021Z,37.87
2018-11-06T20:27:55.329Z,38.53
2018-11-06T20:30:25.949Z,35.63
2018-11-06T20:32:55.676Z,38.48
2018-11-06T20:35:25.277Z,37.67
2018-11-06T20:37:54.937Z,38.60
2018-11-06T20:40:28.125Z,36.70
2018-11-06T20:42:57.757Z,37.67
2018-11-06T20:45:28.331Z,40.63
2018-11-06T20:47:57.946Z,39.03
2018-11-06T20:50:27.512Z,37.90
2018-11-06T20:52:57.512Z,37.65
2018-11-06T20:55:27.220Z,37.07
2018-11-06T20:57:57.076Z,38.17
2018-11-06T21:00:28.846Z,39.90
2018-11-06T21:03:00.877Z,39.05
2018-11-06T21:05:30.344Z,37.97
2018-11-06T21:07:59.943Z,38.00
2018-11-06T21:10:30.926Z,39.90
2018-11-06T21:13:00.591Z,36.58
2018-11-06T21:15:30.211Z,37.30
2018-11-06T21:17:59.785Z,33.20
2018-11-06T21:20:29.219Z,35.00
2018-11-06T21:22:58.842Z,38.10
2018-11-06T21:25:28.593Z,31.70
2018-11-06T21:27:58.216Z,34.17
2018-11-06T21:30:27.644Z,37.03
2018-11-06T21:32:57.247Z,34.13
2018-11-06T21:35:26.792Z,34.80
2018-11-06T21:37:56.558Z,33.07
2018-11-06T21:40:26.208Z,33.40
2018-11-06T21:42:55.785Z,37.60
2018-11-06T21:45:25.356Z,32.83
2018-11-06T21:47:54.850Z,34.33
2018-11-06T21:50:24.536Z,38.07
2018-11-06T21:52:54.906Z,33.27
2018-11-06T21:55:24.564Z,33.67
2018-11-06T21:57:54.481Z,31.00
2018-11-06T22:00:24.231Z,32.43
2018-11-06T22:02:53.816Z,34.43
2018-11-06T22:05:23.732Z,32.90
2018-11-06T22:07:53.325Z,30.20
2018-11-06T22:10:23.017Z,33.43
2018-11-06T22:12:52.713Z,30.20
2018-11-06T22:15:22.225Z,32.40
2018-11-06T22:17:51.863Z,29.13
2018-11-06T22:20:21.575Z,28.47
2018-11-06T22:22:51.208Z,30.23
2018-11-06T22:25:20.853Z,28.37
2018-11-06T22:27:50.450Z,31.60
2018-11-06T22:30:20.088Z,30.37
2018-11-06T22:32:49.591Z,27.75
2018-11-06T22:35:19.274Z,31.07
2018-11-06T22:37:49.123Z,28.03
2018-11-06T22:40:18.851Z,28.10
2018-11-06T22:42:50.840Z,27.10
2018-11-06T22:45:20.379Z,25.13
2018-11-06T22:47:49.913Z,26.23
2018-11-06T22:50:19.577Z,25.52
2018-11-06T22:52:49.428Z,23.63
2018-11-06T22:55:19.057Z,28.20
2018-11-06T22:57:48.443Z,26.73
2018-11-06T23:00:23.265Z,25.27
